createdAt,value
2022-08-08T00:01:12.422Z,1.17
2022-08-08T00:03:50.930Z,0.98
2022-08-08T00:06:34.981Z,1.30
2022-08-08T00:09:07.805Z,1.10
2022-08-08T00:11:47.184Z,1.00
2022-08-08T00:14:56.995Z,1.10
2022-08-08T00:17:58.417Z,1.02
2022-08-08T00:20:37.331Z,1.00
2022-08-08T00:23:11.143Z,1.13
2022-08-08T00:25:50.798Z,1.02
2022-08-08T00:28:34.062Z,1.10
2022-08-08T00:32:16.140Z,1.00
2022-08-08T00:34:45.178Z,1.30
2022-08-08T00:37:47.167Z,1.23
2022-08-08T00:41:11.327Z,1.27
2022-08-08T00:44:15.393Z,1.20
2022-08-08T00:48:05.000Z,1.20
2022-08-08T00:51:10.295Z,1.30
2022-08-08T00:54:15.692Z,1.13
2022-08-08T00:57:19.680Z,1.13
2022-08-08T01:00:16.254Z,1.20
2022-08-08T01:04:01.601Z,1.13
2022-08-08T01:07:23.715Z,1.10
2022-08-08T01:10:30.888Z,1.30
2022-08-08T01:13:38.090Z,1.30
2022-08-08T01:16:46.222Z,1.10
2022-08-08T01:20:02.689Z,1.40
2022-08-08T01:23:03.400Z,1.27
2022-08-08T01:26:21.123Z,1.17
2022-08-08T01:29:35.172Z,1.02
2022-08-08T01:32:44.843Z,1.10
2022-08-08T01:36:10.692Z,1.10
2022-08-08T01:39:24.131Z,1.10
2022-08-08T01:42:08.077Z,1.20
2022-08-08T01:44:54.963Z,1.20
2022-08-08T01:48:23.691Z,1.25
2022-08-08T01:52:41.203Z,1.15
2022-08-08T01:55:46.328Z,1.10
2022-08-08T01:58:11.079Z,1.38
2022-08-08T02:00:41.475Z,1.20
2022-08-08T02:03:57.375Z,1.33
2022-08-08T02:07:05.947Z,1.52
2022-08-08T02:10:11.529Z,1.30
2022-08-08T02:12:51.351Z,1.42
2022-08-08T02:15:34.595Z,1.40
2022-08-08T02:18:12.604Z,1.38
2022-08-08T02:21:23.005Z,1.20
2022-08-08T02:24:08.041Z,1.27
2022-08-08T02:26:47.771Z,1.50
2022-08-08T02:29:52.576Z,1.60
2022-08-08T02:33:10.575Z,1.50
2022-08-08T02:36:05.860Z,1.58
2022-08-08T02:39:40.718Z,1.60
2022-08-08T02:44:38.506Z,1.38
2022-08-08T02:46:34.925Z,1.50
2022-08-08T02:50:17.582Z,1.55
2022-08-08T02:53:11.936Z,1.42
2022-08-08T02:56:25.869Z,1.30
2022-08-08T02:59:56.983Z,1.48
2022-08-08T03:03:00.557Z,1.50
2022-08-08T03:06:11.877Z,1.40
2022-08-08T03:16:00.664Z,1.38
2022-08-08T03:17:08.875Z,1.40
2022-08-08T03:20:17.749Z,1.50
2022-08-08T03:22:56.996Z,1.60
2022-08-08T03:25:36.010Z,1.50
2022-08-08T03:28:45.897Z,1.50
2022-08-08T03:32:06.009Z,1.50
2022-08-08T03:38:55.718Z,1.83
2022-08-08T03:42:27.229Z,1.60
2022-08-08T03:49:09.120Z,1.67
2022-08-08T03:54:41.329Z,1.85
2022-08-08T03:58:33.245Z,1.70
2022-08-08T04:00:34.176Z,1.55
2022-08-08T04:03:59.210Z,1.60
2022-08-08T04:06:29.905Z,1.63
2022-08-08T04:09:27.072Z,1.88
2022-08-08T04:11:59.190Z,1.45
2022-08-08T04:14:55.090Z,1.70
2022-08-08T04:17:58.253Z,1.52
2022-08-08T04:21:12.513Z,1.80
2022-08-08T04:30:17.746Z,1.60
2022-08-08T04:32:56.814Z,1.60
2022-08-08T04:35:52.472Z,1.80
2022-08-08T04:38:24.877Z,1.77
2022-08-08T04:40:58.712Z,1.48
2022-08-08T04:43:45.285Z,1.73
2022-08-08T04:47:06.997Z,1.40
2022-08-08T04:50:01.029Z,1.50
2022-08-08T04:52:42.931Z,1.60
2022-08-08T04:55:19.794Z,1.50
2022-08-08T04:57:59.137Z,1.58
2022-08-08T05:00:29.321Z,1.50
2022-08-08T05:02:57.501Z,1.40
2022-08-08T05:05:44.642Z,1.30
2022-08-08T05:08:16.012Z,1.02
2022-08-08T05:10:48.235Z,1.42
2022-08-08T05:13:17.740Z,1.60
2022-08-08T05:16:51.673Z,1.40
2022-08-08T05:18:36.666Z,1.50
2022-08-08T05:21:43.705Z,1.60
2022-08-08T05:24:55.872Z,1.33
2022-08-08T05:27:26.613Z,1.70
2022-08-08T05:30:47.463Z,1.40
2022-08-08T05:33:17.900Z,1.15
2022-08-08T05:35:58.885Z,1.30
2022-08-08T05:38:47.898Z,1.40
2022-08-08T05:41:24.476Z,1.30
2022-08-08T05:44:18.368Z,1.20
2022-08-08T05:47:21.142Z,1.10
2022-08-08T05:50:05.244Z,1.25
2022-08-08T05:52:48.803Z,1.48
2022-08-08T05:59:58.681Z,1.23
2022-08-08T06:11:52.888Z,1.00
2022-08-08T06:14:27.080Z,1.30
2022-08-08T06:17:00.925Z,1.17
2022-08-08T06:19:49.303Z,1.55
2022-08-08T06:22:37.522Z,1.40
2022-08-08T06:31:22.729Z,1.20
2022-08-08T06:34:25.938Z,1.60
2022-08-08T06:37:00.778Z,1.52
2022-08-08T06:39:56.214Z,1.50
2022-08-08T06:42:29.487Z,1.40
2022-08-08T06:45:01.127Z,1.40
2022-08-08T06:47:36.627Z,1.80
2022-08-08T06:50:31.401Z,1.92
2022-08-08T06:53:13.907Z,1.92
2022-08-08T06:56:00.483Z,1.90
2022-08-08T06:58:33.618Z,1.80
2022-08-08T07:01:52.298Z,1.70
2022-08-08T07:04:36.881Z,1.70
2022-08-08T07:06:55.716Z,1.90
2022-08-08T07:09:45.508Z,1.98
2022-08-08T07:12:32.032Z,2.17
2022-08-08T07:15:11.491Z,1.85
2022-08-08T07:18:01.620Z,2.17
2022-08-08T07:20:45.935Z,2.00
2022-08-08T07:23:25.228Z,2.20
2022-08-08T07:26:00.344Z,2.08
2022-08-08T07:28:31.703Z,2.33
2022-08-08T07:31:06.383Z,2.03
2022-08-08T07:33:53.306Z,2.30
2022-08-08T07:36:30.398Z,2.03
2022-08-08T07:39:01.563Z,1.88
2022-08-08T07:41:58.531Z,2.17
2022-08-08T07:44:40.677Z,2.40
2022-08-08T07:47:12.505Z,2.30
2022-08-08T07:49:46.159Z,2.00
2022-08-08T07:52:26.802Z,1.80
2022-08-08T07:55:03.809Z,1.77
2022-08-08T07:57:48.162Z,2.03
2022-08-08T08:00:18.944Z,1.90
2022-08-08T08:03:05.280Z,1.67
2022-08-08T08:05:39.939Z,1.83
2022-08-08T08:08:18.914Z,1.80
2022-08-08T08:10:52.363Z,1.88
2022-08-08T08:13:42.992Z,1.90
2022-08-08T08:16:20.242Z,2.08
2022-08-08T08:18:57.301Z,1.95
2022-08-08T08:21:44.059Z,2.17
2022-08-08T08:24:32.161Z,1.60
2022-08-08T08:27:03.970Z,1.60
2022-08-08T08:29:35.573Z,1.90
2022-08-08T08:32:05.596Z,2.03
2022-08-08T08:34:36.958Z,1.90
2022-08-08T08:37:11.956Z,1.63
2022-08-08T08:40:00.315Z,1.70
2022-08-08T08:42:36.265Z,1.50
2022-08-08T08:45:21.348Z,1.80
2022-08-08T08:47:54.493Z,1.60
2022-08-08T08:50:32.515Z,1.67
2022-08-08T08:53:27.153Z,1.55
2022-08-08T08:56:03.216Z,1.60
2022-08-08T08:58:39.731Z,1.70
2022-08-08T09:01:13.466Z,1.58
2022-08-08T09:03:50.401Z,1.30
2022-08-08T09:06:33.985Z,1.20
2022-08-08T09:09:07.116Z,1.50
2022-08-08T09:11:47.587Z,1.50
2022-08-08T09:14:24.019Z,1.40
2022-08-08T09:16:57.063Z,1.45
2022-08-08T09:21:58.977Z,1.33
2022-08-08T09:22:26.016Z,1.45
2022-08-08T09:24:58.476Z,1.70
2022-08-08T09:27:42.065Z,1.50
2022-08-08T09:30:22.062Z,1.60
2022-08-08T09:33:12.247Z,1.60
2022-08-08T09:35:49.920Z,1.60
2022-08-08T09:38:53.355Z,1.30
2022-08-08T09:42:14.305Z,1.50
2022-08-08T09:44:34.300Z,1.50
2022-08-08T09:47:25.923Z,1.42
2022-08-08T09:50:03.419Z,1.40
2022-08-08T09:52:54.065Z,1.33
2022-08-08T09:56:02.787Z,1.23
2022-08-08T09:58:26.304Z,1.45
2022-08-08T10:01:14.257Z,1.30
2022-08-08T10:03:43.546Z,1.60
2022-08-08T10:06:16.252Z,1.25
2022-08-08T10:08:46.668Z,1.08
2022-08-08T10:12:27.445Z,1.38
2022-08-08T10:14:07.314Z,1.35
2022-08-08T10:16:56.815Z,1.27
2022-08-08T10:19:45.778Z,1.13
2022-08-08T10:22:19.572Z,1.10
2022-08-08T10:24:49.730Z,1.30
2022-08-08T10:27:24.986Z,1.20
2022-08-08T10:30:00.013Z,1.63
2022-08-08T10:32:35.816Z,1.05
2022-08-08T10:35:11.582Z,0.93
2022-08-08T10:37:53.712Z,1.05
2022-08-08T10:40:23.074Z,1.10
2022-08-08T10:43:00.507Z,1.08
2022-08-08T10:45:29.649Z,0.82
2022-08-08T10:48:12.801Z,1.10
2022-08-08T10:50:42.541Z,1.00
2022-08-08T10:53:13.111Z,1.08
2022-08-08T10:55:46.785Z,0.98
2022-08-08T10:58:15.611Z,0.85
2022-08-08T11:00:53.052Z,1.00
2022-08-08T11:04:01.525Z,1.20
2022-08-08T11:06:34.500Z,1.00
2022-08-08T11:09:14.946Z,1.10
2022-08-08T11:12:05.023Z,1.10
2022-08-08T11:14:33.541Z,0.90
2022-08-08T11:17:04.987Z,0.88
2022-08-08T11:19:36.551Z,0.88
2022-08-08T11:22:05.682Z,1.15
2022-08-08T11:24:36.854Z,1.27
2022-08-08T11:27:10.751Z,1.30
2022-08-08T11:29:58.179Z,0.98
2022-08-08T11:32:40.184Z,0.95
2022-08-08T11:35:24.921Z,1.17
2022-08-08T11:38:39.211Z,1.15
2022-08-08T11:40:52.459Z,0.75
2022-08-08T11:43:24.577Z,1.00
2022-08-08T11:46:09.949Z,1.02
2022-08-08T11:48:44.888Z,1.10
2022-08-08T11:51:30.327Z,1.45
2022-08-08T11:54:27.212Z,0.90
2022-08-08T11:56:56.051Z,1.10
2022-08-08T11:59:58.525Z,1.20
2022-08-08T12:02:32.395Z,1.05
2022-08-08T12:05:06.762Z,1.50
2022-08-08T12:08:12.610Z,1.10
2022-08-08T12:22:20.605Z,1.02
2022-08-08T12:28:57.773Z,1.35
2022-08-08T12:31:53.909Z,1.30
2022-08-08T12:34:48.747Z,1.25
2022-08-08T12:37:22.819Z,1.15
2022-08-08T12:40:13.322Z,1.45
2022-08-08T12:42:58.081Z,1.00
2022-08-08T12:45:58.017Z,1.10
2022-08-08T12:48:38.790Z,1.20
2022-08-08T12:51:39.807Z,1.00
2022-08-08T12:54:29.437Z,1.00
2022-08-08T12:57:49.671Z,1.02
2022-08-08T13:00:56.735Z,1.45
2022-08-08T13:03:53.217Z,0.68
2022-08-08T13:07:01.069Z,0.90
2022-08-08T13:10:05.014Z,1.10
2022-08-08T13:19:01.688Z,0.95
2022-08-08T13:22:24.428Z,1.00
2022-08-08T13:28:42.452Z,1.00
2022-08-08T13:31:46.678Z,1.25
2022-08-08T13:38:05.626Z,1.15
2022-08-08T13:40:33.921Z,1.10
2022-08-08T13:46:27.443Z,0.90
2022-08-08T13:49:11.981Z,1.00
2022-08-08T13:52:07.750Z,1.02
2022-08-08T13:58:07.138Z,1.10
2022-08-08T14:00:33.315Z,0.93
2022-08-08T14:03:52.650Z,1.02
2022-08-08T14:06:37.759Z,0.93
2022-08-08T14:10:02.243Z,1.13
2022-08-08T14:12:58.187Z,1.38
2022-08-08T14:15:46.507Z,1.20
2022-08-08T14:18:51.968Z,1.20
2022-08-08T14:21:52.035Z,0.90
2022-08-08T14:24:31.607Z,1.20
2022-08-08T14:27:01.599Z,1.15
2022-08-08T14:29:48.225Z,1.00
2022-08-08T14:32:32.194Z,1.20
2022-08-08T14:35:24.373Z,1.55
2022-08-08T14:38:34.533Z,1.67
2022-08-08T14:41:53.246Z,1.35
2022-08-08T14:44:22.102Z,1.38
2022-08-08T14:47:21.191Z,1.13
2022-08-08T14:50:39.396Z,1.50
2022-08-08T14:53:27.337Z,1.50
2022-08-08T14:56:38.277Z,1.70
2022-08-08T14:59:31.419Z,1.13
2022-08-08T15:02:20.035Z,1.27
2022-08-08T15:05:15.830Z,1.85
2022-08-08T15:07:53.676Z,1.60
2022-08-08T15:10:35.992Z,1.67
2022-08-08T15:13:08.415Z,1.65
2022-08-08T15:16:02.489Z,1.38
2022-08-08T15:18:34.696Z,1.90
2022-08-08T15:21:07.822Z,1.83
2022-08-08T15:23:40.317Z,1.60
2022-08-08T15:26:14.007Z,1.60
2022-08-08T15:28:56.131Z,1.95
2022-08-08T15:32:19.012Z,1.92
2022-08-08T15:34:56.350Z,2.40
2022-08-08T15:37:38.092Z,1.83
2022-08-08T15:40:15.516Z,1.70
2022-08-08T15:42:51.354Z,1.80
2022-08-08T15:45:29.902Z,1.65
2022-08-08T15:48:15.445Z,1.80
2022-08-08T15:51:03.182Z,2.00
2022-08-08T15:53:50.004Z,2.15
2022-08-08T15:56:23.484Z,1.83
2022-08-08T15:58:56.786Z,2.05
2022-08-08T16:01:40.835Z,1.70
2022-08-08T16:04:21.434Z,1.70
2022-08-08T16:07:04.523Z,2.03
2022-08-08T16:13:03.451Z,1.65
2022-08-08T16:13:14.269Z,2.03
2022-08-08T16:15:21.964Z,1.95
2022-08-08T16:18:05.941Z,1.80
2022-08-08T16:20:42.242Z,1.63
2022-08-08T16:23:16.087Z,2.22
2022-08-08T16:25:54.550Z,2.00
2022-08-08T16:28:36.313Z,1.73
2022-08-08T16:31:07.643Z,1.83
2022-08-08T16:33:38.710Z,1.80
2022-08-08T16:36:09.863Z,2.10
2022-08-08T16:38:47.553Z,1.90
2022-08-08T16:41:22.864Z,2.10
2022-08-08T16:43:52.356Z,1.73
2022-08-08T16:46:39.081Z,1.83
2022-08-08T16:49:09.688Z,1.90
2022-08-08T16:55:14.001Z,2.00
2022-08-08T16:55:22.688Z,1.92
2022-08-08T16:57:43.586Z,1.80
2022-08-08T17:00:08.874Z,2.20
2022-08-08T17:02:39.547Z,1.83
2022-08-08T17:05:10.065Z,1.95
2022-08-08T17:07:40.255Z,1.73
2022-08-08T17:10:11.593Z,2.20
2022-08-08T17:12:47.038Z,2.10
2022-08-08T17:15:23.171Z,1.85
2022-08-08T17:18:03.032Z,1.83
2022-08-08T17:20:33.000Z,1.85
2022-08-08T17:23:18.262Z,1.80
2022-08-08T17:25:58.104Z,1.92
2022-08-08T17:28:35.224Z,1.65
2022-08-08T17:31:15.110Z,1.92
2022-08-08T17:34:53.385Z,2.13
2022-08-08T17:36:44.185Z,2.25
2022-08-08T17:40:05.136Z,2.00
2022-08-08T17:42:18.490Z,2.38
2022-08-08T17:44:49.051Z,2.30
2022-08-08T17:47:37.750Z,2.13
2022-08-08T17:50:10.641Z,2.20
2022-08-08T17:52:43.162Z,2.10
2022-08-08T17:56:05.224Z,2.22
2022-08-08T17:58:02.516Z,1.90
2022-08-08T18:00:31.777Z,2.10
2022-08-08T18:03:09.079Z,2.38
2022-08-08T18:05:44.298Z,2.20
2022-08-08T18:08:24.888Z,2.20
2022-08-08T18:11:15.093Z,2.60
2022-08-08T18:13:46.940Z,2.17
2022-08-08T18:16:20.568Z,2.33
2022-08-08T18:18:53.634Z,2.33
2022-08-08T18:21:25.032Z,2.30
2022-08-08T18:24:18.969Z,2.63
2022-08-08T18:26:53.745Z,2.72
2022-08-08T18:29:33.354Z,2.25
2022-08-08T18:32:04.225Z,2.22
2022-08-08T18:34:33.918Z,2.25
2022-08-08T18:37:08.182Z,1.92
2022-08-08T18:39:42.590Z,2.22
2022-08-08T18:42:15.779Z,2.50
2022-08-08T18:44:55.178Z,2.40
2022-08-08T18:47:24.894Z,2.30
2022-08-08T18:50:00.474Z,2.58
2022-08-08T18:52:33.805Z,2.40
2022-08-08T18:55:10.236Z,2.40
2022-08-08T18:57:45.157Z,2.38
2022-08-08T19:00:20.203Z,1.98
2022-08-08T19:02:56.593Z,2.33
2022-08-08T19:05:31.819Z,2.47
2022-08-08T19:08:24.803Z,2.30
2022-08-08T19:10:58.900Z,2.22
2022-08-08T19:13:53.251Z,2.20
2022-08-08T19:16:19.258Z,2.30
2022-08-08T19:18:54.525Z,2.50
2022-08-08T19:21:30.747Z,2.50
2022-08-08T19:24:05.482Z,2.53
2022-08-08T19:26:35.369Z,2.03
2022-08-08T19:29:04.539Z,2.55
2022-08-08T19:31:36.872Z,2.47
2022-08-08T19:34:29.934Z,2.20
2022-08-08T19:36:58.650Z,2.50
2022-08-08T19:39:35.760Z,2.40
2022-08-08T19:42:06.851Z,2.30
2022-08-08T19:44:45.719Z,2.55
2022-08-08T19:47:26.929Z,2.60
2022-08-08T19:50:02.581Z,2.67
2022-08-08T19:52:39.399Z,2.83
2022-08-08T19:55:34.087Z,2.72
2022-08-08T19:58:02.324Z,2.92
2022-08-08T20:00:34.388Z,2.70
2022-08-08T20:03:14.879Z,2.30
2022-08-08T20:06:14.475Z,2.88
2022-08-08T20:08:47.635Z,2.42
2022-08-08T20:11:18.562Z,2.72
2022-08-08T20:14:32.961Z,2.90
2022-08-08T20:16:40.824Z,2.67
2022-08-08T20:19:10.603Z,2.35
2022-08-08T20:21:40.060Z,2.72
2022-08-08T20:24:08.783Z,2.70
2022-08-08T20:26:41.802Z,2.55
2022-08-08T20:29:18.081Z,2.47
2022-08-08T20:32:06.913Z,2.63
2022-08-08T20:34:36.082Z,2.63
2022-08-08T20:37:07.215Z,2.80
2022-08-08T20:39:41.438Z,2.67
2022-08-08T20:42:28.620Z,2.65
2022-08-08T20:44:58.719Z,2.70
2022-08-08T20:47:36.059Z,2.55
2022-08-08T20:50:09.932Z,2.70
2022-08-08T20:52:40.126Z,2.83
2022-08-08T20:55:26.305Z,2.70
2022-08-08T20:57:57.829Z,2.80
2022-08-08T21:00:41.250Z,2.88
2022-08-08T21:03:24.670Z,2.60
2022-08-08T21:10:12.697Z,2.67
2022-08-08T21:16:04.645Z,2.55
2022-08-08T21:18:29.521Z,3.20
2022-08-08T21:24:01.999Z,2.92
2022-08-08T21:43:48.476Z,3.10
2022-08-08T21:54:31.737Z,2.85
2022-08-08T21:55:01.847Z,3.40
2022-08-08T21:58:04.081Z,3.00
2022-08-08T22:00:46.829Z,3.25
2022-08-08T22:03:20.450Z,2.78
2022-08-08T22:08:41.925Z,2.88
2022-08-08T22:11:51.134Z,2.97
2022-08-08T22:13:58.825Z,3.10
2022-08-08T22:16:28.768Z,2.70
2022-08-08T22:18:58.667Z,3.17
2022-08-08T22:21:34.660Z,3.20
2022-08-08T22:24:02.833Z,3.10
2022-08-08T22:26:32.765Z,2.83
2022-08-08T22:29:13.254Z,2.95
2022-08-08T22:32:01.707Z,3.00
2022-08-08T22:34:33.261Z,3.15
2022-08-08T22:37:14.734Z,3.15
2022-08-08T22:39:51.334Z,3.10
2022-08-08T22:42:31.990Z,3.08
2022-08-08T22:45:02.597Z,3.15
2022-08-08T22:47:38.369Z,3.13
2022-08-08T22:50:26.556Z,3.30
2022-08-08T22:54:27.390Z,3.20
2022-08-08T22:55:58.292Z,3.08
2022-08-08T22:58:31.829Z,3.15
2022-08-08T23:01:01.596Z,3.15
2022-08-08T23:03:54.272Z,3.05
2022-08-08T23:06:24.643Z,3.30
2022-08-08T23:08:58.272Z,3.08
2022-08-08T23:11:30.809Z,3.10
2022-08-08T23:14:21.865Z,3.63
2022-08-08T23:16:59.092Z,3.55
2022-08-08T23:19:30.713Z,3.00
2022-08-08T23:22:08.254Z,3.40
2022-08-08T23:24:41.156Z,3.45
2022-08-08T23:27:37.506Z,3.40
2022-08-08T23:30:00.752Z,3.38
2022-08-08T23:32:30.039Z,3.45
2022-08-08T23:34:59.274Z,3.38
2022-08-08T23:38:00.879Z,3.53
2022-08-08T23:40:36.165Z,3.67
2022-08-08T23:43:04.427Z,3.17
2022-08-08T23:49:02.533Z,3.60
2022-08-08T23:49:04.614Z,3.50
2022-08-08T23:54:42.970Z,3.00
2022-08-08T23:57:04.732Z,3.58
